Time;durP1;ratioP1;P1;durP2;ratioP2;P2;SDS_P1;SDS_P2;PMS_P1;PMS_P2;Temp;Humidity;BMP_temperature;BMP_pressure;BME280_temperature;BME280_humidity;BME280_pressure;Samples;Min_cycle;Max_cycle;Signal;HPM_P1;HPM_P2
2021/06/19 00:00:11;;;;;;;4.08;3.22;;;;;;;22.05;73.23;100495.55;1756832;79;21144;-50
2021/06/19 00:02:39;;;;;;;;;;;;;;;22.06;73.28;100488.86;1751219;79;20989;-50
2021/06/19 00:05:07;;;;;;;7.30;3.40;;;;;;;22.08;73.38;100500.41;1751663;79;20245;-53
2021/06/19 00:07:33;;;;;;;5.47;3.37;;;;;;;22.11;73.45;100490.03;1752214;79;21108;-52
2021/06/19 00:09:59;;;;;;;4.65;2.83;;;;;;;22.16;73.48;100487.64;1759792;79;21504;-52
2021/06/19 00:12:25;;;;;;;5.00;2.80;;;;;;;22.20;73.46;100478.89;1758796;79;21760;-53
2021/06/19 00:14:52;;;;;;;3.65;2.77;;;;;;;22.25;73.40;100473.16;1726874;80;21084;-51
2021/06/19 00:17:18;;;;;;;3.25;2.62;;;;;;;22.33;73.31;100472.28;1731018;80;21459;-51
2021/06/19 00:19:44;;;;;;;3.77;2.30;;;;;;;22.41;73.23;100461.70;1730293;81;21024;-53
2021/06/19 00:22:10;;;;;;;5.78;2.70;;;;;;;22.47;73.24;100465.91;1734535;80;21076;-52
2021/06/19 00:24:38;;;;;;;5.97;3.12;;;;;;;22.55;73.23;100465.03;1735441;80;21028;-51
2021/06/19 00:27:06;;;;;;;2.72;2.15;;;;;;;22.62;73.22;100466.67;1732079;80;21057;-50
2021/06/19 00:29:33;;;;;;;3.35;2.47;;;;;;;22.68;73.18;100458.96;1732086;80;21084;-50
2021/06/19 00:31:59;;;;;;;4.15;2.30;;;;;;;22.75;73.14;100459.25;1730529;81;21515;-52
2021/06/19 00:34:25;;;;;;;2.98;2.50;;;;;;;22.81;73.05;100468.17;1762100;79;21060;-50
2021/06/19 00:36:52;;;;;;;3.30;2.50;;;;;;;22.83;72.94;100461.13;1758454;81;21156;-50
2021/06/19 00:39:18;;;;;;;3.45;2.35;;;;;;;22.87;72.79;100455.73;1757997;79;21535;-51
2021/06/19 00:41:44;;;;;;;4.95;2.75;;;;;;;22.89;72.70;100465.89;1752920;79;21048;-52
2021/06/19 00:44:20;;;;;;;3.10;2.20;;;;;;;22.92;72.56;100465.20;1754625;79;20982;-51
2021/06/19 00:46:56;;;;;;;2.75;1.80;;;;;;;22.97;72.47;100474.70;1751198;79;21092;-49
2021/06/19 00:49:23;;;;;;;4.28;2.00;;;;;;;22.99;72.42;100472.41;1760391;79;21670;-51
2021/06/19 00:51:49;;;;;;;3.50;2.05;;;;;;;23.02;72.38;100470.34;1744911;80;21049;-50
2021/06/19 00:54:16;;;;;;;4.00;2.30;;;;;;;23.03;72.33;100476.94;1751514;80;20901;-52
2021/06/19 00:56:42;;;;;;;2.50;2.20;;;;;;;23.04;72.32;100484.69;1739285;79;21072;-51
2021/06/19 00:59:09;;;;;;;2.62;2.15;;;;;;;23.01;72.26;100472.30;1752561;78;21049;-47
2021/06/19 01:01:36;;;;;;;2.70;2.20;;;;;;;22.99;72.21;100472.41;1754770;79;23227;-48
2021/06/19 01:04:03;;;;;;;2.70;2.20;;;;;;;22.96;72.17;100469.73;1754545;79;21049;-52
2021/06/19 01:06:29;;;;;;;3.15;2.12;;;;;;;22.92;72.12;100470.18;1757799;79;20986;-47
2021/06/19 01:08:55;;;;;;;3.55;2.60;;;;;;;22.89;72.09;100475.03;1765079;79;21061;-49
2021/06/19 01:11:22;;;;;;;2.92;2.08;;;;;;;22.89;72.04;100481.97;1749391;78;21038;-48
2021/06/19 01:13:51;;;;;;;3.45;2.25;;;;;;;22.89;72.04;100479.77;1747906;79;21130;-48
2021/06/19 01:16:19;;;;;;;3.30;1.95;;;;;;;22.88;72.07;100485.07;1776237;78;21097;-50
2021/06/19 01:18:47;;;;;;;2.92;2.00;;;;;;;22.87;72.12;100482.08;1761423;79;21001;-48
2021/06/19 01:21:16;;;;;;;2.77;1.90;;;;;;;22.87;72.19;100489.02;1757209;79;21010;-48
2021/06/19 01:23:43;;;;;;;2.85;2.17;;;;;;;22.84;72.23;100484.95;1756029;79;21017;-47
2021/06/19 01:26:15;;;;;;;3.08;2.27;;;;;;;22.84;72.28;100491.06;1757465;79;21258;-48
2021/06/19 01:28:43;;;;;;;3.65;2.55;;;;;;;22.82;72.27;100501.13;1759787;79;21526;-54
2021/06/19 01:31:09;;;;;;;4.28;2.22;;;;;;;22.80;72.28;100497.87;1739354;80;21010;-49
2021/06/19 01:33:38;;;;;;;3.70;2.15;;;;;;;22.77;72.29;100494.40;1754923;79;21404;-47
2021/06/19 01:36:06;;;;;;;2.22;1.65;;;;;;;22.78;72.24;100488.28;1757718;79;21405;-48
2021/06/19 01:38:36;;;;;;;4.22;2.17;;;;;;;22.78;72.27;100491.05;1763057;79;21569;-50
2021/06/19 01:41:02;;;;;;;2.77;1.87;;;;;;;22.78;72.33;100484.13;1721322;80;21068;-48
2021/06/19 01:43:29;;;;;;;2.50;1.87;;;;;;;22.76;72.37;100490.81;1738853;80;21064;-49
2021/06/19 01:45:55;;;;;;;2.40;1.75;;;;;;;22.78;72.47;100484.94;1738852;80;21598;-49
2021/06/19 01:48:21;;;;;;;3.25;2.17;;;;;;;22.78;72.52;100491.05;1737755;80;21000;-49
2021/06/19 01:50:47;;;;;;;2.83;1.90;;;;;;;22.75;72.55;100495.30;1763905;79;21254;-49
2021/06/19 01:53:13;;;;;;;2.80;2.10;;;;;;;22.74;72.58;100498.64;1757895;79;20885;-48
2021/06/19 01:55:39;;;;;;;2.42;1.80;;;;;;;22.71;72.56;100499.91;1765264;79;20905;-47
2021/06/19 01:58:06;;;;;;;3.35;1.92;;;;;;;22.66;72.55;100487.63;1763406;79;21578;-47
2021/06/19 02:00:35;;;;;;;3.02;1.70;;;;;;;22.65;72.54;100492.36;1739390;81;20986;-47
2021/06/19 02:03:01;;;;;;;3.02;1.40;;;;;;;22.66;72.56;100486.23;1768028;79;21051;-47
2021/06/19 02:05:27;;;;;;;2.65;1.67;;;;;;;22.65;72.60;100486.81;1756314;79;20941;-49
2021/06/19 02:08:00;;;;;;;2.30;1.50;;;;;;;22.64;72.64;100486.56;1761032;79;21032;-50
2021/06/19 02:10:29;;;;;;;2.77;1.77;;;;;;;22.63;72.69;100489.67;1760268;79;20945;-48
2021/06/19 02:12:55;;;;;;;2.87;1.65;;;;;;;22.63;72.77;100484.94;1769791;79;21326;-48
2021/06/19 02:15:22;;;;;;;2.35;1.52;;;;;;;22.59;72.77;100486.77;1762675;79;21011;-48
2021/06/19 02:17:48;;;;;;;1.90;1.60;;;;;;;22.57;72.79;100479.95;1757921;79;20935;-48
2021/06/19 02:20:16;;;;;;;3.47;1.95;;;;;;;22.54;72.79;100493.89;1765621;79;21525;-47
2021/06/19 02:22:42;;;;;;;2.30;1.70;;;;;;;22.52;72.77;100481.53;1732529;80;21021;-47
2021/06/19 02:25:11;;;;;;;2.83;1.60;;;;;;;22.51;72.74;100483.48;1761394;79;21411;-48
2021/06/19 02:27:39;;;;;;;2.95;1.30;;;;;;;22.51;72.71;100483.48;1767442;79;21447;-49
2021/06/19 02:30:07;;;;;;;2.08;1.30;;;;;;;22.51;72.76;100475.74;1758672;79;21545;-48
2021/06/19 02:32:33;;;;;;;2.72;1.45;;;;;;;22.50;72.77;100476.89;1734772;81;21091;-47
2021/06/19 02:34:59;;;;;;;2.10;1.40;;;;;;;22.48;72.83;100479.20;1738576;81;20906;-47
2021/06/19 02:37:25;;;;;;;1.67;1.25;;;;;;;22.46;72.87;100471.21;1736310;80;21026;-49
2021/06/19 02:39:51;;;;;;;1.95;1.15;;;;;;;22.45;72.89;100471.57;1735075;81;21100;-49
2021/06/19 02:42:17;;;;;;;2.00;1.30;;;;;;;22.43;72.89;100475.23;1731008;81;20925;-50
2021/06/19 02:44:44;;;;;;;3.00;1.30;;;;;;;22.41;72.87;100474.75;1734702;81;21014;-49
2021/06/19 02:47:10;;;;;;;1.77;1.10;;;;;;;22.38;72.83;100469.32;1737953;80;20910;-50
2021/06/19 02:49:36;;;;;;;1.62;1.20;;;;;;;22.38;72.77;100469.32;1734978;80;20873;-48
2021/06/19 02:52:03;;;;;;;2.72;1.30;;;;;;;22.38;72.77;100462.39;1736739;81;21119;-48
2021/06/19 02:54:29;;;;;;;2.15;1.02;;;;;;;22.38;72.77;100459.62;1733868;81;21044;-49
2021/06/19 02:56:55;;;;;;;1.70;1.00;;;;;;;22.38;72.82;100462.39;1730624;81;21579;-49
2021/06/19 02:59:21;;;;;;;1.52;1.30;;;;;;;22.36;72.85;100463.89;1737504;81;21970;-49
2021/06/19 03:01:47;;;;;;;3.17;1.40;;;;;;;22.33;72.86;100460.63;1695942;82;20900;-50
2021/06/19 03:04:15;;;;;;;3.05;1.40;;;;;;;22.31;72.83;100457.40;1702991;82;21526;-50
2021/06/19 03:06:42;;;;;;;2.65;1.05;;;;;;;22.29;72.82;100458.30;1733438;80;21080;-49
2021/06/19 03:09:09;;;;;;;2.47;1.20;;;;;;;22.26;72.79;100455.39;1741194;81;21470;-48
2021/06/19 03:11:35;;;;;;;1.30;0.90;;;;;;;22.24;72.76;100456.29;1696430;83;21077;-48
2021/06/19 03:14:02;;;;;;;1.25;1.00;;;;;;;22.25;72.72;100455.15;1699842;83;21188;-48
2021/06/19 03:16:28;;;;;;;1.65;1.02;;;;;;;22.24;72.69;100461.27;1692889;83;21271;-50
2021/06/19 03:18:54;;;;;;;1.60;0.95;;;;;;;22.24;72.73;100458.49;1690068;83;20927;-49
2021/06/19 03:21:20;;;;;;;1.40;1.00;;;;;;;22.25;72.76;100459.30;1697923;83;20999;-47
2021/06/19 03:23:46;;;;;;;1.87;1.35;;;;;;;22.25;72.81;100457.92;1704023;83;21488;-51
2021/06/19 03:26:12;;;;;;;1.80;1.10;;;;;;;22.24;72.83;100457.67;1741408;80;21013;-52
2021/06/19 03:28:38;;;;;;;1.52;0.98;;;;;;;22.22;72.85;100448.91;1740764;80;21303;-49
2021/06/19 03:31:04;;;;;;;1.60;1.32;;;;;;;22.22;72.85;100451.67;1753826;79;21733;-48
2021/06/19 03:33:30;;;;;;;1.70;1.00;;;;;;;22.20;72.80;100451.19;1753129;79;21056;-49
2021/06/19 03:35:56;;;;;;;1.52;1.10;;;;;;;22.18;72.77;100459.85;1758265;79;21061;-49
2021/06/19 03:38:23;;;;;;;1.07;0.80;;;;;;;22.17;72.74;100458.80;1710719;81;21103;-51
2021/06/19 03:40:49;;;;;;;1.52;0.80;;;;;;;22.17;72.68;100456.02;1755916;79;21074;-49
2021/06/19 03:43:15;;;;;;;1.10;0.80;;;;;;;22.17;72.67;100455.45;1761512;79;20965;-49
2021/06/19 03:45:41;;;;;;;1.80;0.95;;;;;;;22.17;72.70;100453.25;1760674;79;21115;-49
2021/06/19 03:48:08;;;;;;;1.27;1.05;;;;;;;22.18;72.74;100457.66;1772820;78;21053;-52
2021/06/19 03:50:34;;;;;;;1.65;1.00;;;;;;;22.18;72.78;100454.88;1753216;79;21068;-50
2021/06/19 03:53:00;;;;;;;1.77;1.12;;;;;;;22.17;72.81;100453.25;1767723;79;20941;-49
2021/06/19 03:55:27;;;;;;;1.40;1.10;;;;;;;22.16;72.84;100458.55;1749176;79;21017;-48
2021/06/19 03:57:55;;;;;;;1.15;1.02;;;;;;;22.16;72.85;100457.16;1763914;78;21000;-48
2021/06/19 04:00:21;;;;;;;1.42;1.20;;;;;;;22.15;72.82;100451.41;1770954;78;20960;-49
2021/06/19 04:02:48;;;;;;;1.40;1.15;;;;;;;22.15;72.82;100451.41;1766678;79;21056;-49
2021/06/19 04:05:14;;;;;;;1.57;1.32;;;;;;;22.16;72.75;100453.82;1757760;79;21060;-50
2021/06/19 04:07:41;;;;;;;1.50;0.93;;;;;;;22.19;72.73;100455.13;1713736;80;20962;-50
2021/06/19 04:10:09;;;;;;;1.65;0.90;;;;;;;22.21;72.76;100447.27;1760592;79;21025;-48
2021/06/19 04:12:35;;;;;;;1.37;0.90;;;;;;;22.21;72.79;100453.63;1762330;79;21077;-49
2021/06/19 04:15:01;;;;;;;1.55;0.90;;;;;;;22.22;72.82;100449.72;1763892;79;21036;-50
2021/06/19 04:17:28;;;;;;;1.60;0.95;;;;;;;22.22;72.84;100444.75;1764460;79;21113;-48
2021/06/19 04:19:54;;;;;;;1.62;1.10;;;;;;;22.21;72.85;100443.94;1754287;79;21065;-49
2021/06/19 04:22:20;;;;;;;1.55;1.07;;;;;;;22.20;72.86;100442.30;1756625;79;21095;-48
2021/06/19 04:24:46;;;;;;;1.90;1.20;;;;;;;22.20;72.81;100449.80;1760024;79;20994;-47
2021/06/19 04:27:18;;;;;;;1.80;1.07;;;;;;;22.19;72.78;100448.20;1765847;79;20994;-50
2021/06/19 04:29:44;;;;;;;2.10;1.30;;;;;;;22.17;72.74;100440.78;1760734;79;21480;-48
2021/06/19 04:32:11;;;;;;;2.50;0.90;;;;;;;22.17;72.67;100444.37;1762142;79;21127;-49
2021/06/19 04:34:39;;;;;;;1.20;1.00;;;;;;;22.18;72.65;100447.38;1754780;78;20998;-49
2021/06/19 04:37:08;;;;;;;1.10;1.00;;;;;;;22.18;72.71;100449.34;1760551;79;21001;-50
2021/06/19 04:39:38;;;;;;;1.70;1.27;;;;;;;22.17;72.73;100452.68;1756201;79;21480;-49
2021/06/19 04:42:06;;;;;;;1.70;1.20;;;;;;;22.18;72.75;100449.34;1761939;79;21555;-50
2021/06/19 04:47:08;;;;;;;2.77;1.10;;;;;;;22.17;72.82;100464.34;1746664;79;21692;-48
2021/06/19 04:49:34;;;;;;;2.35;1.30;;;;;;;22.16;72.82;100461.32;1764201;79;21573;-50
2021/06/19 04:52:00;;;;;;;2.75;1.65;;;;;;;22.14;72.80;100467.79;1766319;79;21064;-52
2021/06/19 04:54:27;;;;;;;2.05;1.15;;;;;;;22.14;72.76;100474.72;1758123;79;21049;-52
2021/06/19 04:56:53;;;;;;;2.47;1.30;;;;;;;22.14;72.72;100467.22;1753025;79;21024;-48
2021/06/19 04:59:19;;;;;;;3.02;1.42;;;;;;;22.18;72.71;100470.94;1759431;79;21491;-51
2021/06/19 05:01:45;;;;;;;2.15;1.15;;;;;;;22.19;72.74;100475.31;1756239;78;21056;-49
2021/06/19 05:04:11;;;;;;;1.77;1.02;;;;;;;22.20;72.77;100468.63;1760384;79;20986;-49
2021/06/19 05:06:37;;;;;;;2.20;1.25;;;;;;;22.23;72.82;100469.36;1757778;79;20968;-48
2021/06/19 05:09:05;;;;;;;1.47;0.98;;;;;;;22.23;72.84;100469.36;1729780;81;21647;-51
2021/06/19 05:11:33;;;;;;;1.35;1.00;;;;;;;22.24;72.86;100471.53;1760049;79;21047;-49
2021/06/19 05:14:00;;;;;;;3.20;1.55;;;;;;;22.24;72.84;100462.65;1762339;79;21061;-49
2021/06/19 05:16:26;;;;;;;2.12;1.40;;;;;;;22.25;72.80;100464.28;1754378;79;21076;-50
2021/06/19 05:18:52;;;;;;;2.00;1.37;;;;;;;22.24;72.76;100453.52;1763880;78;21652;-52
2021/06/19 05:21:18;;;;;;;2.80;1.50;;;;;;;22.24;72.72;100460.45;1760296;79;20882;-49
2021/06/19 05:23:44;;;;;;;1.90;1.20;;;;;;;22.26;72.66;100454.01;1751814;79;21009;-51
2021/06/19 05:26:10;;;;;;;1.20;0.98;;;;;;;;;;1739507;79;21930;-49
2021/06/19 05:28:36;;;;;;;1.80;1.22;;;;;;;22.29;72.66;100461.64;1716952;80;20914;-51
2021/06/19 05:31:03;;;;;;;1.52;0.95;;;;;;;22.29;72.70;100456.91;1736144;80;21075;-47
2021/06/19 05:33:30;;;;;;;3.83;1.07;;;;;;;22.31;72.74;100461.56;1728822;81;21108;-47
2021/06/19 05:35:57;;;;;;;3.47;1.50;;;;;;;22.33;72.77;100468.95;1743236;80;21192;-48
2021/06/19 05:38:23;;;;;;;3.12;1.90;;;;;;;22.31;72.79;100475.41;1754886;80;21060;-49
2021/06/19 05:40:49;;;;;;;3.22;1.57;;;;;;;22.33;72.77;100470.90;1758685;79;21565;-50
2021/06/19 05:43:15;;;;;;;2.30;1.32;;;;;;;22.33;72.74;100480.60;1762344;79;22074;-49
2021/06/19 05:45:41;;;;;;;1.98;1.12;;;;;;;22.32;72.69;100470.66;1766194;78;20940;-48
2021/06/19 05:48:07;;;;;;;2.80;1.27;;;;;;;22.32;72.65;100465.93;1768716;78;20944;-51
2021/06/19 05:50:33;;;;;;;1.65;0.98;;;;;;;22.33;72.63;100476.44;1754550;79;21106;-51
2021/06/19 05:53:00;;;;;;;1.82;0.90;;;;;;;22.32;72.65;100478.40;1763226;79;21073;-50
2021/06/19 05:55:26;;;;;;;1.50;0.98;;;;;;;22.34;72.70;100472.53;1755417;79;21917;-50
2021/06/19 05:57:52;;;;;;;1.60;1.10;;;;;;;22.33;72.71;100473.67;1751412;79;21032;-48
2021/06/19 06:00:19;;;;;;;1.77;1.07;;;;;;;22.33;72.73;100473.10;1753133;79;21241;-51
2021/06/19 06:02:45;;;;;;;1.40;0.90;;;;;;;22.35;72.69;100471.39;1755892;79;21051;-52
2021/06/19 06:05:13;;;;;;;1.82;1.20;;;;;;;22.37;72.67;100477.96;1766244;79;21542;-50
2021/06/19 06:07:39;;;;;;;1.92;1.10;;;;;;;22.36;72.61;100481.33;1760443;79;21029;-50
2021/06/19 06:10:07;;;;;;;7.95;2.72;;;;;;;22.38;72.55;100480.41;1769036;78;21481;-59
2021/06/19 06:12:33;;;;;;;14.90;3.58;;;;;;;22.43;72.60;100479.39;1755512;79;21108;-58
2021/06/19 06:14:59;;;;;;;7.10;2.20;;;;;;;22.47;72.64;100477.00;1758254;79;21041;-60
2021/06/19 06:17:26;;;;;;;31.93;11.75;;;;;;;22.54;72.69;100476.44;1760087;79;21096;-53
2021/06/19 06:19:52;;;;;;;236.57;88.37;;;;;;;22.60;72.77;100480.65;1755662;79;21574;-52
2021/06/19 06:22:18;;;;;;;413.87;158.37;;;;;;;22.63;72.79;100469.69;1726039;80;21491;-52
2021/06/19 06:24:44;;;;;;;474.38;189.22;;;;;;;22.66;72.84;100475.14;1747431;80;20988;-52
2021/06/19 06:27:11;;;;;;;560.80;235.80;;;;;;;22.67;72.92;100475.36;1759056;79;21582;-52
2021/06/19 06:29:37;;;;;;;672.17;284.32;;;;;;;22.67;72.96;100473.97;1756376;79;21147;-52
2021/06/19 06:32:05;;;;;;;680.05;279.30;;;;;;;22.67;72.98;100478.95;1761918;79;21098;-54
2021/06/19 06:34:31;;;;;;;596.37;232.87;;;;;;;22.65;73.00;100477.11;1762759;79;21037;-52
2021/06/19 06:36:57;;;;;;;617.17;251.18;;;;;;;22.67;73.00;100486.45;1755179;79;21095;-56
2021/06/19 06:39:23;;;;;;;589.87;226.27;;;;;;;22.71;73.04;100486.85;1755830;79;21462;-53
2021/06/19 06:41:49;;;;;;;619.60;257.85;;;;;;;22.73;73.11;100487.34;1762235;79;21057;-55
2021/06/19 06:44:15;;;;;;;675.02;273.73;;;;;;;22.73;73.18;100481.80;1763139;79;21096;-53
2021/06/19 06:46:41;;;;;;;714.40;290.82;;;;;;;22.76;73.24;100482.49;1766975;79;21510;-54
2021/06/19 06:49:08;;;;;;;962.70;435.07;;;;;;;22.80;73.29;100491.51;1765822;79;21052;-52
2021/06/19 06:51:37;;;;;;;1033.13;474.45;;;;;;;22.81;73.38;100485.64;1762811;79;21238;-53
2021/06/19 06:54:05;;;;;;;1155.72;521.30;;;;;;;22.80;73.41;100481.80;1757612;79;21060;-51
2021/06/19 06:56:31;;;;;;;1082.28;479.32;;;;;;;22.80;73.43;100488.73;1748448;79;21080;-54
2021/06/19 06:58:58;;;;;;;949.87;403.82;;;;;;;22.79;73.41;100485.75;1755400;79;21033;-52
2021/06/19 07:01:24;;;;;;;881.60;369.13;;;;;;;22.81;73.41;100486.20;1751128;79;21131;-55
2021/06/19 07:03:54;;;;;;;839.10;347.70;;;;;;;22.83;73.40;100496.40;1759978;79;21531;-52
2021/06/19 07:06:18;;;;;;;810.88;331.07;;;;;;;22.86;73.46;100490.16;1764301;78;21037;-55
2021/06/19 07:08:44;;;;;;;809.83;340.80;;;;;;;22.88;73.52;100485.89;1755484;79;21522;-58
2021/06/19 07:11:11;;;;;;;654.67;261.07;;;;;;;22.93;73.61;100481.52;1727601;80;21067;-59
2021/06/19 07:13:37;;;;;;;638.00;252.65;;;;;;;22.98;73.58;100479.92;1691329;82;21215;-60
2021/06/19 07:16:04;;;;;;;539.48;211.72;;;;;;;23.01;73.57;100482.01;1758424;79;21594;-58
2021/06/19 07:18:30;;;;;;;630.00;272.30;;;;;;;23.04;73.53;100485.48;1755368;79;21052;-59
2021/06/19 07:20:56;;;;;;;676.33;310.63;;;;;;;23.07;73.47;100477.06;1762895;79;21147;-62
2021/06/19 07:23:23;;;;;;;780.50;379.52;;;;;;;23.08;73.39;100476.73;1759673;79;21664;-58
2021/06/19 07:25:49;;;;;;;615.62;273.32;;;;;;;23.08;73.26;100469.80;1759772;79;21006;-61
2021/06/19 07:28:15;;;;;;;523.47;230.75;;;;;;;23.09;73.13;100475.55;1756447;79;21001;-61
2021/06/19 07:30:41;;;;;;;499.98;205.62;;;;;;;23.12;73.07;100472.69;1760180;79;21109;-61
2021/06/19 07:33:07;;;;;;;510.25;205.32;;;;;;;23.13;73.06;100460.41;1730963;79;21868;-59
2021/06/19 07:35:33;;;;;;;405.03;136.12;;;;;;;23.15;73.02;100475.59;1719911;81;21061;-60
2021/06/19 07:38:00;;;;;;;334.65;107.50;;;;;;;23.14;72.96;100461.47;1722735;80;21084;-59
2021/06/19 07:40:26;;;;;;;202.80;68.20;;;;;;;23.14;72.92;100469.80;1726166;80;22135;-59
2021/06/19 07:42:53;;;;;;;177.85;58.13;;;;;;;23.12;72.87;100469.92;1729176;80;21037;-59
2021/06/19 07:45:19;;;;;;;122.50;41.60;;;;;;;23.09;72.82;100465.03;1726396;80;21514;-59
2021/06/19 07:47:45;;;;;;;53.83;19.32;;;;;;;23.06;72.76;100460.17;1723778;80;21044;-59
2021/06/19 07:50:11;;;;;;;32.48;10.75;;;;;;;23.04;72.71;100463.88;1723191;80;20890;-59
2021/06/19 07:52:37;;;;;;;27.80;9.48;;;;;;;23.03;72.63;100461.68;1727125;80;21073;-58
2021/06/19 07:55:05;;;;;;;18.50;5.90;;;;;;;23.04;72.60;100458.33;1717351;80;21131;-59
2021/06/19 07:57:31;;;;;;;5.60;2.37;;;;;;;23.05;72.63;100464.09;1726386;80;21014;-58
2021/06/19 07:59:57;;;;;;;18.12;6.10;;;;;;;23.06;72.65;100458.78;1698824;82;21516;-59
2021/06/19 08:02:24;;;;;;;243.57;99.37;;;;;;;23.08;72.69;100462.86;1729569;80;21178;-64
2021/06/19 08:04:50;;;;;;;326.62;131.37;;;;;;;23.13;72.71;100467.35;1722243;80;21096;-57
2021/06/19 08:07:16;;;;;;;456.70;204.95;;;;;;;23.17;72.69;100455.80;1731007;80;21630;-57
2021/06/19 08:09:42;;;;;;;449.98;194.50;;;;;;;23.18;72.63;100460.20;1727231;80;21114;-57
2021/06/19 08:12:09;;;;;;;511.02;236.90;;;;;;;23.22;72.59;100463.34;1729815;80;21385;-57
2021/06/19 08:14:35;;;;;;;516.50;230.18;;;;;;;23.25;72.47;100456.88;1725746;80;21099;-57
2021/06/19 08:17:14;;;;;;;699.42;326.65;;;;;;;23.28;72.35;100468.10;1728725;80;21029;-57
2021/06/19 08:19:36;;;;;;;543.80;243.93;;;;;;;23.30;72.28;100452.50;1718348;80;21064;-57
2021/06/19 08:22:03;;;;;;;464.97;192.25;;;;;;;23.29;72.28;100448.91;1725890;80;21592;-57
2021/06/19 08:24:29;;;;;;;338.68;115.32;;;;;;;23.31;72.30;100449.94;1730181;80;21123;-57
2021/06/19 08:26:55;;;;;;;348.38;126.02;;;;;;;23.33;72.29;100450.41;1695881;82;22585;-54
2021/06/19 08:29:21;;;;;;;479.68;213.92;;;;;;;23.37;72.37;100459.67;1726531;80;21383;-56
2021/06/19 08:31:47;;;;;;;734.52;356.32;;;;;;;23.40;72.36;100463.95;1735570;79;21020;-56
2021/06/19 08:34:14;;;;;;;921.08;458.53;;;;;;;23.43;72.25;100472.16;1757112;78;21199;-54
2021/06/19 08:36:40;;;;;;;668.52;305.92;;;;;;;23.44;72.15;100473.82;1760061;79;21692;-56
2021/06/19 08:39:06;;;;;;;574.15;244.50;;;;;;;23.46;72.09;100468.75;1765753;79;21030;-54
2021/06/19 08:41:33;;;;;;;474.23;193.05;;;;;;;23.46;72.00;100461.23;1761966;78;21492;-55
2021/06/19 08:44:01;;;;;;;626.52;282.27;;;;;;;23.48;71.89;100464.45;1760712;79;21125;-56
2021/06/19 08:46:28;;;;;;;725.70;326.00;;;;;;;23.52;71.90;100456.24;1757753;79;21813;-56
2021/06/19 08:48:59;;;;;;;787.90;345.67;;;;;;;23.55;71.90;100452.19;1757561;79;21092;-57
2021/06/19 08:51:23;;;;;;;663.92;279.87;;;;;;;23.61;71.90;100452.78;1760984;79;21207;-55
2021/06/19 08:53:50;;;;;;;626.20;258.93;;;;;;;23.67;71.88;100459.74;1758347;79;21167;-54
2021/06/19 08:56:18;;;;;;;722.77;306.87;;;;;;;23.68;71.81;100453.81;1755768;79;21472;-56
2021/06/19 08:58:45;;;;;;;694.80;273.90;;;;;;;23.67;71.69;100455.58;1756442;79;21006;-53
2021/06/19 09:01:12;;;;;;;571.20;224.45;;;;;;;23.64;71.68;100459.02;1763739;79;20996;-55
2021/06/19 09:03:38;;;;;;;700.98;275.38;;;;;;;23.61;71.64;100459.15;1760139;79;21056;-56
2021/06/19 09:06:27;;;;;;;829.45;340.30;;;;;;;23.60;71.58;100467.81;1764199;78;20981;-56
2021/06/19 09:09:15;;;;;;;594.55;219.28;;;;;;;23.59;71.56;100466.22;1732174;80;21089;-56
2021/06/19 09:11:46;;;;;;;644.35;235.08;;;;;;;23.61;71.47;100461.11;1755104;79;22953;-56
2021/06/19 09:14:24;;;;;;;;;;;;;;;23.63;71.47;100467.96;1757701;79;21021;-56
2021/06/19 09:17:08;;;;;;;442.98;126.27;;;;;;;23.63;71.50;100461.02;1758717;79;20145;-56
2021/06/19 09:19:36;;;;;;;423.20;129.82;;;;;;;23.62;71.47;100451.05;1761096;79;21890;-58
2021/06/19 09:22:21;;;;;;;434.35;135.10;;;;;;;23.62;71.55;100455.22;1769018;79;21685;-57
2021/06/19 09:24:57;;;;;;;439.82;149.97;;;;;;;23.62;71.56;100449.67;1771183;79;21069;-58
2021/06/19 09:27:46;;;;;;;417.65;134.15;;;;;;;23.61;71.61;100450.00;1760317;79;21045;-57
2021/06/19 09:30:19;;;;;;;305.70;88.55;;;;;;;23.61;71.56;100454.98;1762954;79;21141;-58
2021/06/19 09:32:51;;;;;;;317.75;102.50;;;;;;;23.61;71.53;100451.39;1768366;78;21104;-57
2021/06/19 09:35:29;;;;;;;227.15;64.85;;;;;;;23.62;71.49;100457.19;1730291;80;21019;-58
2021/06/19 09:37:57;;;;;;;130.22;37.40;;;;;;;23.66;71.43;100451.17;1756254;78;20999;-57
2021/06/19 09:40:45;;;;;;;210.75;66.95;;;;;;;23.65;71.42;100447.58;1760717;78;21127;-58
2021/06/19 09:43:23;;;;;;;227.70;69.62;;;;;;;23.68;71.46;100449.66;1779821;79;21048;-56
2021/06/19 09:46:05;;;;;;;444.25;157.80;;;;;;;23.71;71.46;100445.97;1779637;79;21016;-56
2021/06/19 09:48:39;;;;;;;499.80;184.97;;;;;;;23.70;71.46;100436.81;1776638;79;21036;-53
2021/06/19 09:51:18;;;;;;;480.40;175.85;;;;;;;23.66;71.48;100439.48;1774981;78;21052;-56
2021/06/19 09:53:47;;;;;;;496.42;173.40;;;;;;;23.66;71.51;100447.81;1775721;78;21460;-56
2021/06/19 09:56:16;;;;;;;449.90;145.95;;;;;;;23.64;71.50;100440.97;1764188;78;21419;-55
2021/06/19 09:58:51;;;;;;;398.68;127.78;;;;;;;23.65;71.51;100449.54;1764641;78;21123;-53
2021/06/19 10:01:35;;;;;;;312.63;94.47;;;;;;;23.71;71.47;100436.25;1773051;78;21100;-55
2021/06/19 10:04:02;;;;;;;237.27;70.20;;;;;;;23.75;71.48;100441.33;1764898;78;21683;-55
2021/06/19 10:06:29;;;;;;;219.35;58.55;;;;;;;23.78;71.46;100447.00;1764281;78;21068;-52
2021/06/19 10:08:56;;;;;;;268.20;82.30;;;;;;;23.80;71.44;100440.53;1772628;78;21665;-54
2021/06/19 10:11:25;;;;;;;577.28;257.37;;;;;;;23.83;71.49;100447.34;1739342;80;21025;-57
2021/06/19 10:13:52;;;;;;;477.05;187.27;;;;;;;23.87;71.44;100437.97;1765167;79;21115;-56
2021/06/19 10:16:18;;;;;;;380.25;128.80;;;;;;;23.86;71.37;100443.29;1763454;79;21134;-55
2021/06/19 10:18:46;;;;;;;319.65;101.45;;;;;;;23.85;71.25;100448.61;1781287;78;21048;-56
2021/06/19 10:21:13;;;;;;;196.82;60.63;;;;;;;23.81;71.21;100438.53;1770403;79;21045;-55
2021/06/19 10:23:40;;;;;;;108.65;31.50;;;;;;;23.78;71.18;100449.78;1775816;78;21060;-56
2021/06/19 10:26:06;;;;;;;43.70;14.47;;;;;;;23.82;71.15;100436.00;1775624;78;21044;-55
2021/06/19 10:28:35;;;;;;;18.07;6.10;;;;;;;23.84;71.14;100433.69;1767894;78;21067;-58
2021/06/19 10:31:01;;;;;;;7.75;3.30;;;;;;;23.87;71.14;100430.21;1779930;78;21041;-55
2021/06/19 10:33:32;;;;;;;5.83;3.02;;;;;;;23.87;71.10;100429.63;1763887;79;21460;-54
2021/06/19 10:36:02;;;;;;;3.95;2.65;;;;;;;23.87;71.11;100429.63;1766802;79;22228;-54
2021/06/19 10:38:29;;;;;;;6.07;2.37;;;;;;;23.83;71.01;100445.95;1762541;79;21048;-55
2021/06/19 10:40:58;;;;;;;4.92;2.95;;;;;;;23.83;71.01;100445.95;1756414;79;22261;-55
2021/06/19 10:43:26;;;;;;;3.83;2.20;;;;;;;23.79;70.97;100429.76;1762073;79;21024;-53
2021/06/19 10:45:54;;;;;;;3.90;2.50;;;;;;;23.78;70.94;100435.08;1737543;80;21053;-55
2021/06/19 10:48:32;;;;;;;6.03;2.40;;;;;;;23.75;70.89;100421.89;1768550;79;21490;-55
2021/06/19 10:51:22;;;;;;;4.15;2.37;;;;;;;23.76;70.83;100430.46;1763119;79;21532;-54
2021/06/19 10:54:19;;;;;;;6.42;2.05;;;;;;;23.78;70.82;100419.80;1730123;80;21186;-55
2021/06/19 10:56:56;;;;;;;2.87;2.00;;;;;;;23.82;70.82;100423.49;1763582;79;21609;-54
2021/06/19 10:59:32;;;;;;;9.80;5.20;;;;;;;23.83;70.81;100415.40;1765810;79;21487;-57
2021/06/19 11:02:00;;;;;;;3.42;2.45;;;;;;;23.83;70.81;100423.16;1756864;79;21483;-57
2021/06/19 11:04:42;;;;;;;5.58;2.83;;;;;;;23.85;70.81;100420.83;1762430;79;21625;-58
2021/06/19 11:07:23;;;;;;;4.62;2.85;;;;;;;23.84;70.74;100411.47;1763740;79;21165;-58
2021/06/19 11:09:50;;;;;;;5.00;3.08;;;;;;;23.85;70.67;100418.66;1763616;79;22219;-57
2021/06/19 11:12:28;;;;;;;7.80;3.80;;;;;;;23.85;70.62;100408.93;1764399;79;21055;-56
2021/06/19 11:15:05;;;;;;;4.90;3.02;;;;;;;23.85;70.56;100403.37;1761283;79;21072;-56
2021/06/19 11:17:43;;;;;;;4.12;2.80;;;;;;;23.88;70.48;100407.64;1764606;79;21571;-56
2021/06/19 11:20:25;;;;;;;5.50;2.98;;;;;;;23.94;70.44;100410.98;1754001;79;21342;-56